• Join FlightAware (Why Join?)
  • Login
  • US Flag 
04:34AM EDT


 

Airport Tracker/Info


-or-


 

Live Flight TrackerFlight Track Log ✈ N7191N ✈ 15-Oct-2013 ✈ KITH - KCLE

Flight Track Log - Related Links

Times and Time Zones

All times are in EDT time to prevent confusion due to time zone crossing. See the N7191N flight status page for this flight to view local times or setup timezone preferences in your user account.

Time Position Orientation Groundspeed Altitude Reporting Facility
EDT Latitude Longitude Course Direction KTS MPH feet Rate Location/Type
06:03PM 42.4467 -76.5139 261° West 162 186 4,900  Level New York Center
06:04PM 42.4392 -76.5808 261° West 174 200 6,100 1,140 Climbing New York Center
06:05PM 42.4339 -76.6450 264° West 174 200 7,200 1,140 Climbing New York Center
06:07PM 42.4158 -76.7956 261° West 186 214 9,700 1,140 Climbing Cleveland Center
06:08PM 42.4033 -76.8614 256° West 182 209 10,900 1,140 Climbing Cleveland Center
06:09PM 42.3897 -76.9283 255° West 183 211 12,100 1,140 Climbing Cleveland Center
06:10PM 42.3775 -76.9967 256° West 186 214 13,300 1,140 Climbing Cleveland Center
06:11PM 42.3650 -77.0625 256° West 183 211 14,500 1,260 Climbing Cleveland Center
06:12PM 42.3506 -77.1444 257° West 186 214 16,000 1,320 Climbing Cleveland Center
06:13PM 42.3383 -77.2103 256° West 180 207 17,300 1,020 Climbing Cleveland Center
06:15PM 42.3253 -77.2778 255° West 186 214 18,200 960 Climbing Cleveland Center
06:16PM 42.3122 -77.3464 256° West 188 216 19,300 960 Climbing Cleveland Center
06:17PM 42.2986 -77.4169 255° West 193 222 20,200 840 Climbing Cleveland Center
06:18PM 42.2850 -77.4894 256° West 198 228 21,100 840 Climbing Cleveland Center
06:19PM 42.2717 -77.5614 256° West 198 228 22,000 840 Climbing Cleveland Center
06:20PM 42.2547 -77.6469 255° West 196 226 22,900 720 Climbing Cleveland Center
06:21PM 42.2414 -77.7189 256° West 197 227 23,600 480 Climbing Cleveland Center
06:22PM 42.2275 -77.7917 256° West 200 230 24,000 180 Climbing Cleveland Center
06:23PM 42.2108 -77.8717 254° West 217 250 24,000  Level Cleveland Center
06:24PM 42.1950 -77.9556 256° West 228 262 24,000  Level Cleveland Center
06:25PM 42.1783 -78.0417 255° West 236 272 24,000  Level Cleveland Center
06:26PM 42.1578 -78.1472 255° West 243 280 24,000  Level Cleveland Center
06:27PM 42.1400 -78.2353 255° West 241 277 24,000  Level Cleveland Center
06:28PM 42.1236 -78.3203 255° West 240 276 24,000  Level Cleveland Center
06:29PM 42.1064 -78.4019 254° West 233 268 24,000  Level Cleveland Center
06:30PM 42.0900 -78.4833 255° West 228 262 24,000  Level Cleveland Center
06:31PM 42.0694 -78.5850 255° West 235 270 24,000  Level Cleveland Center
06:32PM 42.0533 -78.6703 256° West 238 274 24,000  Level Cleveland Center
06:33PM 42.0353 -78.7542 254° West 238 274 24,000  Level Cleveland Center
06:34PM 42.0183 -78.8372 255° West 235 270 24,000  Level Cleveland Center
06:35PM 42.0014 -78.9228 255° West 239 275 24,000  Level Cleveland Center
06:36PM 41.9814 -79.0211 255° West 229 264 24,000  Level Cleveland Center
06:37PM 41.9639 -79.1044 254° West 235 270 24,100  Climbing Cleveland Center
06:38PM 41.9472 -79.1861 255° West 230 265 24,000 -60 Descending Cleveland Center
06:39PM 41.9303 -79.2661 254° West 226 260 24,000  Level Cleveland Center
06:40PM 41.9122 -79.3464 253° West 226 260 24,000  Level Cleveland Center
06:41PM 41.8925 -79.4417 254° West 225 259 24,000  Level Cleveland Center
06:42PM 41.8764 -79.5214 255° West 224 258 24,000  Level Cleveland Center
06:43PM 41.8594 -79.6014 254° West 225 259 24,000  Level Cleveland Center
06:45PM 41.8408 -79.6881 254° West 232 267 24,000  Level Cleveland Center
06:46PM 41.8225 -79.7703 253° West 230 265 24,000  Level Cleveland Center
06:47PM 41.8050 -79.8531 254° West 229 264 24,000  Level Cleveland Center
06:48PM 41.7867 -79.9372 254° West 233 268 24,000  Level Cleveland Center
06:49PM 41.7669 -80.0333 255° West 230 265 24,000 -120 Level Cleveland Center
06:50PM 41.7492 -80.1167 254° West 232 267 23,800 -660 Descending Cleveland Center
06:51PM 41.7292 -80.2075 254° West 252 290 22,700 -1,020 Descending Cleveland Center
06:52PM 41.7094 -80.3014 254° West 258 297 21,700 -1,140 Descending Cleveland Center
06:53PM 41.6886 -80.3931 253° West 258 297 20,400 -1,500 Descending Cleveland Center
06:54PM 41.6697 -80.4819 254° West 250 288 18,600 -1,800 Descending Cleveland Center
06:55PM 41.6481 -80.5725 252° West 250 288 16,700 -2,040 Descending Cleveland Center
06:56PM 41.6253 -80.6775 254° West 251 289 14,500 -1,680 Descending Cleveland Center
06:57PM 41.6069 -80.7611 254° West 238 274 13,300 -1,020 Descending Cleveland Center
06:58PM 41.5875 -80.8467 253° West 237 273 12,500 -960 Descending Cleveland Center
06:59PM 41.5675 -80.9333 253° West 240 276 11,400 -1,200 Descending Cleveland Center
06:59PM 41.5625 -80.9561 254° West 246 283 11,100 -1,560 Descending Cleveland Center
07:00PM 41.5556 -80.9886 254° West 246 283 10,500 -1,440 Descending Cleveland Center
07:00PM 41.5486 -81.0189 253° West 239 275 9,900 -1,320 Descending Cleveland Center
07:01PM 41.5375 -81.0781 256° West 232 267 9,100 -780 Descending Cleveland Center
07:01PM 41.5322 -81.1019 254° West 233 268 9,100  Level Cleveland Center
07:02PM 41.5583 -81.1536 304° West 228 262 9,100  Level Cleveland Center
07:02PM 41.5667 -81.1756 297° West 228 262 9,100  Level Cleveland Center
07:03PM 41.5914 -81.2314 301° West 224 258 9,100  Level Cleveland Center
07:03PM 41.6014 -81.2597 295° West 223 257 9,100  Level Cleveland Center
07:04PM 41.6206 -81.3086 298° West 221 254 9,100  Level Cleveland Center
07:04PM 41.6297 -81.3339 296° West 221 254 9,100  Level Cleveland Center
07:05PM 41.6342 -81.3919 276° West 220 253 9,100  Level Cleveland Center
07:05PM 41.6314 -81.4136 260° West 219 252 9,100 -300 Level Cleveland Center
07:06PM 41.6306 -81.4781 269° West 211 243 8,800 -600 Descending Cleveland Center
07:06PM 41.6275 -81.4914 253° West 211 243 8,500 -1,440 Descending Cleveland Center
07:07PM 41.6153 -81.5317 248° West 230 265 7,800 -1,380 Descending Cleveland Center
07:07PM 41.5956 -81.5633 230° Southwest 223 257 7,100 -1,500 Descending Cleveland Center
07:08PM 41.5761 -81.5953 231° Southwest 218 251 6,300 -1,560 Descending Cleveland Center
07:08PM 41.5539 -81.6247 225° Southwest 221 254 5,500 -1,680 Descending Cleveland Center
07:09PM 41.5222 -81.6817 233° Southwest 219 252 4,000 -1,800 Descending Cleveland Center
07:09PM 41.5100 -81.6967 223° Southwest 217 250 3,700 -840 Descending Cleveland Center
07:10PM 41.4856 -81.7372 231° Southwest 159 183 3,100 -720 Descending Cleveland Center
07:10PM 41.4808 -81.7411 212° Southwest 177 204 3,000 -840 Descending Cleveland Center
07:11PM 41.4708 -81.7600 235° Southwest 135 155 2,600 -720 Descending Cleveland Center
07:11PM 41.4572 -81.7792 227° Southwest 149 171 2,300 -600 Descending Cleveland Center
07:12PM 41.4511 -81.7931 240° Southwest 122 140 2,100 -600 Descending Cleveland Center
07:12PM 41.4350 -81.8142 224° Southwest 131 151 1,700 -660 Descending Cleveland Center
07:13PM 41.4214 -81.8411 236° Southwest 117 135 1,200 -720 Descending Cleveland Center
07:13PM 41.4150 -81.8458 209° Southwest 119 137 1,000 -600 Descending Cleveland Center
07:15PM 41.4000 -81.8500 252° West  Level FlightAware Approximate
07:22PM 41.4094 -81.8547 252° West  Level Estimated